CMA-CGM Fort Saint Pierre — FQFM — position and weather

sailwx.info

Track history (hours):
 
Tides and Currents Weather Stations Pressure Air Temp Water Temp Dewpoint Dewpoint Depression Visibility Wind Speed Wind Dir Waves Ship Positions

CMA-CGM Fort Saint Pierre

Last reported at 2017-Sep-24 23:11 UTC. Time now 2017-Sep-25 04:21 UTC.
Position N 45°54' W 006°02'.

Length 197 m; beam 30 m.

Type: Ship (hazmat cat D). MMSI: 226328000.

Date/timePositionNaut miles runAvg speedWind from/ knotsBaromVisibWave heightAir tempDewpointWater temp
2017-Sep-24 23:11N 45°54' W 006°02'10217.5
2017-Sep-24 17:21N 46°38' W 003°48'617.1
2017-Sep-24 17:00N 46°41' W 003°41'1017.1
2017-Sep-24 16:26N 46°45' W 003°28'817.2
2017-Sep-24 15:57N 46°48' W 003°17'817.1
2017-Sep-24 15:30N 46°52' W 003°07'917.0
2017-Sep-24 15:00N 46°55' W 002°56'817.0
2017-Sep-24 14:30N 46°59' W 002°45'816.5
2017-Sep-24 14:00N 47°03' W 002°34'612.5
2017-Sep-24 13:30N 47°06' W 002°26'510.1
2017-Sep-24 13:00N 47°09' W 002°20'612.4
2017-Sep-24 12:30N 47°14' W 002°15'611.1
2017-Sep-24 12:00N 47°18' W 002°09'0 0.3
2017-Sep-24 11:21N 47°18' W 002°09'0 0.0
2017-Sep-24 11:00N 47°18' W 002°09'0 0.0
2017-Sep-24 10:27N 47°18' W 002°09'0 0.0
2017-Sep-24 10:00N 47°18' W 002°09'0 0.0
2017-Sep-24 09:30N 47°18' W 002°09'0 0.0
2017-Sep-24 09:00N 47°18' W 002°09'0 0.0
2017-Sep-24 08:30N 47°18' W 002°09'0 0.0
2017-Sep-24 08:00N 47°18' W 002°09'0 0.0
2017-Sep-24 07:30N 47°18' W 002°09'0 0.0
2017-Sep-24 07:00N 47°18' W 002°09'0 0.0
2017-Sep-24 06:30N 47°18' W 002°09'0 0.0
2017-Sep-24 06:00N 47°18' W 002°09'0 0.0
2017-Sep-24 05:30N 47°18' W 002°09'0 0.0
2017-Sep-24 05:00N 47°18' W 002°09'0 0.0
2017-Sep-24 04:27N 47°18' W 002°09'0 0.0
2017-Sep-24 04:00N 47°18' W 002°09'0 0.0
2017-Sep-24 03:30N 47°18' W 002°09'0 0.0
2017-Sep-24 03:00N 47°18' W 002°09'0 0.0
2017-Sep-24 02:30N 47°18' W 002°09'0 0.0
2017-Sep-24 02:00N 47°18' W 002°09'0 0.0
2017-Sep-24 01:30N 47°18' W 002°09'0 0.0
2017-Sep-24 00:57N 47°18' W 002°09'0 0.0
2017-Sep-24 00:30N 47°18' W 002°09'0 0.0
2017-Sep-24 00:00N 47°18' W 002°09'0 0.0
2017-Sep-23 23:27N 47°18' W 002°09'0 0.0
2017-Sep-23 22:57N 47°18' W 002°09'0 0.0
2017-Sep-23 22:30N 47°18' W 002°09'0 0.0
2017-Sep-23 22:00N 47°18' W 002°09'0 0.0
2017-Sep-23 21:29N 47°18' W 002°09'3 5.3
2017-Sep-23 21:00N 47°16' W 002°12'714.9
2017-Sep-23 20:31N 47°10' W 002°18'5 9.2
2017-Sep-23 20:00N 47°07' W 002°23'174 4.1
2017-Sep-22 01:59N 49°27' E 000°10'0 0.0
2017-Sep-22 01:29N 49°27' E 000°10'0 0.0
2017-Sep-22 00:59N 49°27' E 000°10'0 0.0
2017-Sep-22 00:29N 49°27' E 000°10'0 0.0
2017-Sep-21 23:59N 49°27' E 000°10'0 0.0
2017-Sep-21 23:29N 49°27' E 000°10'0 0.0
2017-Sep-21 22:59N 49°27' E 000°10'0 0.0
2017-Sep-21 22:29N 49°27' E 000°10'0 0.0
2017-Sep-21 21:59N 49°27' E 000°10'0 0.0
2017-Sep-21 21:29N 49°27' E 000°10'0 0.0
2017-Sep-21 20:59N 49°27' E 000°10'0 0.0
2017-Sep-21 20:29N 49°27' E 000°10'0 0.0
2017-Sep-21 19:59N 49°27' E 000°10'0 0.0
2017-Sep-21 19:29N 49°27' E 000°10'0 0.0
2017-Sep-21 18:59N 49°27' E 000°10'0 0.0
2017-Sep-21 18:29N 49°27' E 000°10'0 0.0
2017-Sep-21 17:59N 49°27' E 000°10'0 0.0
2017-Sep-21 17:29N 49°27' E 000°10'0 0.0
2017-Sep-21 16:59N 49°27' E 000°10'0 0.0
2017-Sep-21 16:29N 49°27' E 000°10'0 0.0
2017-Sep-21 15:59N 49°27' E 000°10'0 0.0
2017-Sep-21 15:29N 49°27' E 000°10'0 0.0
2017-Sep-21 14:59N 49°27' E 000°10'0 0.0
2017-Sep-21 14:29N 49°27' E 000°10'0 0.0
2017-Sep-21 13:56N 49°27' E 000°10'0 0.0
2017-Sep-21 13:29N 49°27' E 000°10'0 0.2
2017-Sep-21 13:00N 49°27' E 000°10'2 3.9
2017-Sep-21 12:30N 49°28' E 000°07'612.4
2017-Sep-21 12:00N 49°30' W 000°02'611.1
2017-Sep-21 11:30N 49°32' W 000°10'4 8.4
2017-Sep-21 11:00N 49°36' W 000°11'510.1
2017-Sep-21 10:30N 49°41' W 000°11'510.1
2017-Sep-21 10:00N 49°46' W 000°11'23 9.8
2017-Sep-21 07:39N 50°10' W 000°11'2 9.9
2017-Sep-21 07:26N 50°12' W 000°11'711.7
2017-Sep-21 06:49N 50°19' W 000°12'413.4
2017-Sep-21 06:30N 50°23' W 000°12'612.3
2017-Sep-21 06:00N 50°27' W 000°04'714.1
2017-Sep-21 05:30N 50°29' E 000°06'714.5
2017-Sep-21 05:01N 50°31' E 000°17'714.8
2017-Sep-21 04:31N 50°33' E 000°28'714.6
2017-Sep-21 04:01N 50°36' E 000°39'714.2
2017-Sep-21 03:31N 50°40' E 000°48'713.7
2017-Sep-21 03:00N 50°44' E 000°57'713.2
2017-Sep-21 02:30N 50°48' E 001°05'612.8
2017-Sep-21 02:00N 50°52' E 001°13'612.0
2017-Sep-21 01:30N 50°56' E 001°20'511.0
2017-Sep-21 01:00N 51°00' E 001°26'510.5
2017-Sep-21 00:30N 51°04' E 001°32'5 9.4
2017-Sep-21 00:00N 51°07' E 001°37'4 8.2
2017-Sep-20 23:30N 51°10' E 001°42'5 9.4
2017-Sep-20 23:00N 51°14' E 001°47'510.4
2017-Sep-20 22:30N 51°18' E 001°52'611.8
2017-Sep-20 22:00N 51°23' E 001°57'5 9.8
2017-Sep-20 21:30N 51°24' E 002°04'611.7
2017-Sep-20 21:00N 51°22' E 002°13'612.0
2017-Sep-20 20:30N 51°21' E 002°22'712.8
2017-Sep-20 19:56N 51°23' E 002°34'512.5
2017-Sep-20 19:30N 51°23' E 002°43'612.4
2017-Sep-20 19:00N 51°23' E 002°53'816.1
2017-Sep-20 18:30N 51°24' E 003°05'917.3
2017-Sep-20 18:00N 51°24' E 003°19'917.1
2017-Sep-20 17:30N 51°25' E 003°33'5 9.2
2017-Sep-20 17:00N 51°27' E 003°40'815.7
2017-Sep-20 16:30N 51°21' E 003°49'715.0
2017-Sep-20 16:00N 51°26' E 003°58'612.0
2017-Sep-20 15:30N 51°22' E 004°06'611.0
2017-Sep-20 15:00N 51°21' E 004°15'2 1.7
2017-Sep-20 14:01N 51°21' E 004°17'1 1.3
2017-Sep-20 13:30N 51°20' E 004°18'3 6.6
2017-Sep-20 13:00N 51°17' E 004°20'2 3.6
2017-Sep-20 12:30N 51°16' E 004°22'1 1.3
2017-Sep-20 11:59N 51°16' E 004°23'0 0.0
2017-Sep-20 11:29N 51°16' E 004°23'0 0.0
2017-Sep-20 10:59N 51°16' E 004°23'0 0.0
2017-Sep-20 10:29N 51°16' E 004°23'0 0.0
2017-Sep-20 09:59N 51°16' E 004°23'0 0.0
2017-Sep-20 09:29N 51°16' E 004°23'0 0.0
2017-Sep-20 08:59N 51°16' E 004°23'0 0.0
2017-Sep-20 08:29N 51°16' E 004°23'0 0.0
2017-Sep-20 07:59N 51°16' E 004°23'0 0.0
2017-Sep-20 07:29N 51°16' E 004°23'0 0.0
2017-Sep-20 06:59N 51°16' E 004°23'0 0.0
2017-Sep-20 06:29N 51°16' E 004°23'0 0.0
2017-Sep-20 05:59N 51°16' E 004°23'0 0.0
2017-Sep-20 05:29N 51°16' E 004°23'0 0.0
2017-Sep-20 04:59N 51°16' E 004°23'0 0.0
2017-Sep-20 04:29N 51°16' E 004°23'0 0.0
2017-Sep-20 03:59N 51°16' E 004°23'0 0.0
2017-Sep-20 03:29N 51°16' E 004°23'0 0.0
2017-Sep-20 02:59N 51°16' E 004°23'0 0.0
2017-Sep-20 02:29N 51°16' E 004°23'0 0.0
2017-Sep-20 01:59N 51°16' E 004°23'0 0.0
2017-Sep-20 01:29N 51°16' E 004°23'0 0.0
2017-Sep-20 00:59N 51°16' E 004°23'0 0.0
2017-Sep-20 00:29N 51°16' E 004°23'0 0.0
2017-Sep-19 23:59N 51°16' E 004°23'0 0.0
2017-Sep-19 23:29N 51°16' E 004°23'0 0.0
2017-Sep-19 22:59N 51°16' E 004°23'0 0.0
2017-Sep-19 22:29N 51°16' E 004°23'0 0.0
2017-Sep-19 21:59N 51°16' E 004°23'0 0.0
2017-Sep-19 21:26N 51°16' E 004°23'0 0.0
2017-Sep-19 20:59N 51°16' E 004°23'1 1.3
2017-Sep-19 20:30N 51°16' E 004°22'2 4.2
2017-Sep-19 20:00N 51°17' E 004°20'2 4.1
2017-Sep-19 19:30N 51°19' E 004°19'2 3.6
2017-Sep-19 19:01N 51°21' E 004°17'0 0.0
2017-Sep-19 18:31N 51°21' E 004°17'0 0.1
2017-Sep-19 18:00N 51°21' E 004°17'1 2.2
2017-Sep-19 17:31N 51°21' E 004°15'3 6.4
2017-Sep-19 17:01N 51°24' E 004°12'5 9.6
2017-Sep-19 16:31N 51°22' E 004°05'510.3
2017-Sep-19 16:01N 51°26' E 004°00'612.5
2017-Sep-19 15:30N 51°21' E 003°54'612.9
2017-Sep-19 15:00N 51°23' E 003°44'611.1
2017-Sep-19 14:31N 51°26' E 003°36'5 9.4
2017-Sep-19 14:01N 51°25' E 003°29'713.6
2017-Sep-19 13:30N 51°24' E 003°18'714.2
2017-Sep-19 13:00N 51°24' E 003°07'713.5
2017-Sep-19 12:30N 51°22' E 002°56'714.2
2017-Sep-19 12:00N 51°22' E 002°45'613.0
2017-Sep-19 11:30N 51°22' E 002°35'5 9.2
2017-Sep-19 11:00N 51°21' E 002°27'5 9.5
2017-Sep-19 10:29N 51°19' E 002°21'613.4
2017-Sep-19 10:00N 51°15' E 002°12'713.3
2017-Sep-19 09:30N 51°12' E 002°03'713.5
2017-Sep-19 09:01N 51°09' E 001°53'713.6
2017-Sep-19 08:31N 51°04' E 001°45'714.1
2017-Sep-19 08:01N 51°03' E 001°56'815.8
2017-Sep-19 07:31N 51°03' E 002°09'3 5.5
2017-Sep-19 07:00N 51°01' E 002°11'0 0.0
2017-Sep-19 06:30N 51°01' E 002°11'0 0.0
2017-Sep-19 06:00N 51°01' E 002°11'0 0.0
2017-Sep-19 05:30N 51°01' E 002°11'0 0.0
2017-Sep-19 05:00N 51°01' E 002°11'0 0.0
2017-Sep-19 04:30N 51°01' E 002°11'0 0.0
2017-Sep-19 03:57N 51°01' E 002°11'0 0.0
2017-Sep-19 03:27N 51°01' E 002°11'0 0.0
2017-Sep-19 03:00N 51°01' E 002°11'0 0.0
2017-Sep-19 02:30N 51°01' E 002°11'0 0.0
2017-Sep-19 02:00N 51°01' E 002°11'0 0.0
2017-Sep-19 01:27N 51°01' E 002°11'0 0.0
2017-Sep-19 01:00N 51°01' E 002°11'0 0.0
2017-Sep-19 00:30N 51°01' E 002°11'0 0.0
2017-Sep-19 00:00N 51°01' E 002°11'0 0.0
2017-Sep-18 23:30N 51°01' E 002°11'0 0.0
2017-Sep-18 23:00N 51°01' E 002°11'0 0.0
2017-Sep-18 22:27N 51°01' E 002°11'0 0.0
2017-Sep-18 22:00N 51°01' E 002°11'0 0.0
2017-Sep-18 21:27N 51°01' E 002°11'0 0.0
2017-Sep-18 20:51N 51°01' E 002°11'0 0.0
2017-Sep-18 20:30N 51°01' E 002°11'0 0.0
2017-Sep-18 20:00N 51°01' E 002°11'0 0.0
2017-Sep-18 19:30N 51°01' E 002°11'0 0.0
2017-Sep-18 19:00N 51°01' E 002°11'0 0.0
2017-Sep-18 18:30N 51°01' E 002°11'0 0.0
2017-Sep-18 18:00N 51°01' E 002°11'0 0.0
2017-Sep-18 17:27N 51°01' E 002°11'0 0.0
2017-Sep-18 16:54N 51°01' E 002°11'0 0.0
2017-Sep-18 16:21N 51°01' E 002°11'0 0.0
2017-Sep-18 16:00N 51°01' E 002°11'0 0.0
2017-Sep-18 15:30N 51°01' E 002°11'0 0.0
2017-Sep-18 15:00N 51°01' E 002°11'0 0.0
2017-Sep-18 14:30N 51°01' E 002°11'0 0.0
2017-Sep-18 13:57N 51°01' E 002°11'0 0.0
2017-Sep-18 13:27N 51°01' E 002°11'0 0.0
2017-Sep-18 13:00N 51°01' E 002°11'0 0.0
2017-Sep-18 12:27N 51°01' E 002°11'0 0.0
2017-Sep-18 12:00N 51°01' E 002°11'0 0.0
2017-Sep-18 11:27N 51°01' E 002°11'0 0.0
2017-Sep-18 11:00N 51°01' E 002°11'0 0.0
2017-Sep-18 10:30N 51°01' E 002°11'0 0.0
2017-Sep-18 10:00N 51°01' E 002°11'0 0.0
2017-Sep-18 09:30N 51°01' E 002°11'0 0.0
2017-Sep-18 08:57N 51°01' E 002°11'0 0.0
2017-Sep-18 08:30N 51°01' E 002°11'0 0.0
2017-Sep-18 08:00N 51°01' E 002°11'0 0.0
2017-Sep-18 07:30N 51°01' E 002°11'0 0.0
2017-Sep-18 07:00N 51°01' E 002°11'0 0.0
2017-Sep-18 06:27N 51°01' E 002°11'0 0.0
2017-Sep-18 05:51N 51°01' E 002°11'0 0.0
2017-Sep-18 05:27N 51°01' E 002°11'0 0.0
2017-Sep-18 04:57N 51°01' E 002°11'0 0.0
2017-Sep-18 04:27N 51°01' E 002°11'0 0.0
2017-Sep-18 03:57N 51°01' E 002°11'0 0.0
2017-Sep-18 03:30N 51°01' E 002°11'1 2.4
2017-Sep-18 03:00N 51°02' E 002°10'511.0
2017-Sep-18 02:31N 51°03' E 002°02'713.6
2017-Sep-18 02:00N 51°02' E 001°51'611.6
2017-Sep-18 01:30N 51°01' E 001°42'815.0
2017-Sep-18 01:00N 50°56' E 001°33'5513.6
2017-Sep-17 20:57N 50°25' E 000°21'714.4
2017-Sep-17 20:28N 50°23' E 000°11'714.3
2017-Sep-17 20:00N 50°21' E 000°01'714.5
2017-Sep-17 19:30N 50°19' W 000°10'2915.9
2017-Sep-17 17:40N 50°10' W 000°54'317.0
2017-Sep-17 17:31N 50°10' W 000°58'917.0
2017-Sep-17 17:01N 50°07' W 001°11'816.7
2017-Sep-17 16:30N 50°05' W 001°23'816.6
2017-Sep-17 16:01N 50°03' W 001°36'816.8
2017-Sep-17 15:30N 50°01' W 001°48'816.1
2017-Sep-17 15:00N 49°59' W 002°01'815.8
2017-Sep-17 14:31N 49°57' W 002°12'2216.2
2017-Sep-17 13:09N 49°51' W 002°45'217.0
2017-Sep-17 13:00N 49°50' W 002°49'1117.0
2017-Sep-17 12:21N 49°48' W 003°06'616.9
2017-Sep-17 12:00N 49°47' W 003°15'816.7
2017-Sep-17 11:30N 49°45' W 003°27'816.7
2017-Sep-17 11:00N 49°46' W 003°40'1116.9
2017-Sep-17 10:21N 49°45' W 003°57'616.9
2017-Sep-17 10:00N 49°45' W 004°06'4617.1
2017-Sep-17 07:20N 49°41' W 005°17'  
Track history (hours):
 
Tides and Currents Weather Stations Pressure Air Temp Water Temp Dewpoint Dewpoint Depression Visibility Wind Speed Wind Dir Waves Ship Positions

CMA-CGM Fort Saint Pierre

Last reported at 2017-Sep-24 23:11 UTC. Time now 2017-Sep-25 04:21 UTC.
Position N 45°54' W 006°02'.

Length 197 m; beam 30 m.

Type: Ship (hazmat cat D). MMSI: 226328000.

Date/timePositionNaut miles runAvg speedWind from/ knotsBaromVisibWave heightAir tempDewpointWater temp
2017-Sep-24 23:11N 45°54' W 006°02'10217.5
2017-Sep-24 17:21N 46°38' W 003°48'617.1
2017-Sep-24 17:00N 46°41' W 003°41'1017.1
2017-Sep-24 16:26N 46°45' W 003°28'817.2
2017-Sep-24 15:57N 46°48' W 003°17'817.1
2017-Sep-24 15:30N 46°52' W 003°07'917.0
2017-Sep-24 15:00N 46°55' W 002°56'817.0
2017-Sep-24 14:30N 46°59' W 002°45'816.5
2017-Sep-24 14:00N 47°03' W 002°34'612.5
2017-Sep-24 13:30N 47°06' W 002°26'510.1
2017-Sep-24 13:00N 47°09' W 002°20'612.4
2017-Sep-24 12:30N 47°14' W 002°15'611.1
2017-Sep-24 12:00N 47°18' W 002°09'0 0.3
2017-Sep-24 11:21N 47°18' W 002°09'0 0.0
2017-Sep-24 11:00N 47°18' W 002°09'0 0.0
2017-Sep-24 10:27N 47°18' W 002°09'0 0.0
2017-Sep-24 10:00N 47°18' W 002°09'0 0.0
2017-Sep-24 09:30N 47°18' W 002°09'0 0.0
2017-Sep-24 09:00N 47°18' W 002°09'0 0.0
2017-Sep-24 08:30N 47°18' W 002°09'0 0.0
2017-Sep-24 08:00N 47°18' W 002°09'0 0.0
2017-Sep-24 07:30N 47°18' W 002°09'0 0.0
2017-Sep-24 07:00N 47°18' W 002°09'0 0.0
2017-Sep-24 06:30N 47°18' W 002°09'0 0.0
2017-Sep-24 06:00N 47°18' W 002°09'0 0.0
2017-Sep-24 05:30N 47°18' W 002°09'0 0.0
2017-Sep-24 05:00N 47°18' W 002°09'0 0.0
2017-Sep-24 04:27N 47°18' W 002°09'0 0.0
2017-Sep-24 04:00N 47°18' W 002°09'0 0.0
2017-Sep-24 03:30N 47°18' W 002°09'0 0.0
2017-Sep-24 03:00N 47°18' W 002°09'0 0.0
2017-Sep-24 02:30N 47°18' W 002°09'0 0.0
2017-Sep-24 02:00N 47°18' W 002°09'0 0.0
2017-Sep-24 01:30N 47°18' W 002°09'0 0.0
2017-Sep-24 00:57N 47°18' W 002°09'0 0.0
2017-Sep-24 00:30N 47°18' W 002°09'0 0.0
2017-Sep-24 00:00N 47°18' W 002°09'0 0.0
2017-Sep-23 23:27N 47°18' W 002°09'0 0.0
2017-Sep-23 22:57N 47°18' W 002°09'0 0.0
2017-Sep-23 22:30N 47°18' W 002°09'0 0.0
2017-Sep-23 22:00N 47°18' W 002°09'0 0.0
2017-Sep-23 21:29N 47°18' W 002°09'3 5.3
2017-Sep-23 21:00N 47°16' W 002°12'714.9
2017-Sep-23 20:31N 47°10' W 002°18'5 9.2
2017-Sep-23 20:00N 47°07' W 002°23'174 4.1
2017-Sep-22 01:59N 49°27' E 000°10'0 0.0
2017-Sep-22 01:29N 49°27' E 000°10'0 0.0
2017-Sep-22 00:59N 49°27' E 000°10'0 0.0
2017-Sep-22 00:29N 49°27' E 000°10'0 0.0
2017-Sep-21 23:59N 49°27' E 000°10'0 0.0
2017-Sep-21 23:29N 49°27' E 000°10'0 0.0
2017-Sep-21 22:59N 49°27' E 000°10'0 0.0
2017-Sep-21 22:29N 49°27' E 000°10'0 0.0
2017-Sep-21 21:59N 49°27' E 000°10'0 0.0
2017-Sep-21 21:29N 49°27' E 000°10'0 0.0
2017-Sep-21 20:59N 49°27' E 000°10'0 0.0
2017-Sep-21 20:29N 49°27' E 000°10'0 0.0
2017-Sep-21 19:59N 49°27' E 000°10'0 0.0
2017-Sep-21 19:29N 49°27' E 000°10'0 0.0
2017-Sep-21 18:59N 49°27' E 000°10'0 0.0
2017-Sep-21 18:29N 49°27' E 000°10'0 0.0
2017-Sep-21 17:59N 49°27' E 000°10'0 0.0
2017-Sep-21 17:29N 49°27' E 000°10'0 0.0
2017-Sep-21 16:59N 49°27' E 000°10'0 0.0
2017-Sep-21 16:29N 49°27' E 000°10'0 0.0
2017-Sep-21 15:59N 49°27' E 000°10'0 0.0
2017-Sep-21 15:29N 49°27' E 000°10'0 0.0
2017-Sep-21 14:59N 49°27' E 000°10'0 0.0
2017-Sep-21 14:29N 49°27' E 000°10'0 0.0
2017-Sep-21 13:56N 49°27' E 000°10'0 0.0
2017-Sep-21 13:29N 49°27' E 000°10'0 0.2
2017-Sep-21 13:00N 49°27' E 000°10'2 3.9
2017-Sep-21 12:30N 49°28' E 000°07'612.4
2017-Sep-21 12:00N 49°30' W 000°02'611.1
2017-Sep-21 11:30N 49°32' W 000°10'4 8.4
2017-Sep-21 11:00N 49°36' W 000°11'510.1
2017-Sep-21 10:30N 49°41' W 000°11'510.1
2017-Sep-21 10:00N 49°46' W 000°11'23 9.8
2017-Sep-21 07:39N 50°10' W 000°11'2 9.9
2017-Sep-21 07:26N 50°12' W 000°11'711.7
2017-Sep-21 06:49N 50°19' W 000°12'413.4
2017-Sep-21 06:30N 50°23' W 000°12'612.3
2017-Sep-21 06:00N 50°27' W 000°04'714.1
2017-Sep-21 05:30N 50°29' E 000°06'714.5
2017-Sep-21 05:01N 50°31' E 000°17'714.8
2017-Sep-21 04:31N 50°33' E 000°28'714.6
2017-Sep-21 04:01N 50°36' E 000°39'714.2
2017-Sep-21 03:31N 50°40' E 000°48'713.7
2017-Sep-21 03:00N 50°44' E 000°57'713.2
2017-Sep-21 02:30N 50°48' E 001°05'612.8
2017-Sep-21 02:00N 50°52' E 001°13'612.0
2017-Sep-21 01:30N 50°56' E 001°20'511.0
2017-Sep-21 01:00N 51°00' E 001°26'510.5
2017-Sep-21 00:30N 51°04' E 001°32'5 9.4
2017-Sep-21 00:00N 51°07' E 001°37'4 8.2
2017-Sep-20 23:30N 51°10' E 001°42'5 9.4
2017-Sep-20 23:00N 51°14' E 001°47'510.4
2017-Sep-20 22:30N 51°18' E 001°52'611.8
2017-Sep-20 22:00N 51°23' E 001°57'5 9.8
2017-Sep-20 21:30N 51°24' E 002°04'611.7
2017-Sep-20 21:00N 51°22' E 002°13'612.0
2017-Sep-20 20:30N 51°21' E 002°22'712.8
2017-Sep-20 19:56N 51°23' E 002°34'512.5
2017-Sep-20 19:30N 51°23' E 002°43'612.4
2017-Sep-20 19:00N 51°23' E 002°53'816.1
2017-Sep-20 18:30N 51°24' E 003°05'917.3
2017-Sep-20 18:00N 51°24' E 003°19'917.1
2017-Sep-20 17:30N 51°25' E 003°33'5 9.2
2017-Sep-20 17:00N 51°27' E 003°40'815.7
2017-Sep-20 16:30N 51°21' E 003°49'715.0
2017-Sep-20 16:00N 51°26' E 003°58'612.0
2017-Sep-20 15:30N 51°22' E 004°06'611.0
2017-Sep-20 15:00N 51°21' E 004°15'2 1.7
2017-Sep-20 14:01N 51°21' E 004°17'1 1.3
2017-Sep-20 13:30N 51°20' E 004°18'3 6.6
2017-Sep-20 13:00N 51°17' E 004°20'2 3.6
2017-Sep-20 12:30N 51°16' E 004°22'1 1.3
2017-Sep-20 11:59N 51°16' E 004°23'0 0.0
2017-Sep-20 11:29N 51°16' E 004°23'0 0.0
2017-Sep-20 10:59N 51°16' E 004°23'0 0.0
2017-Sep-20 10:29N 51°16' E 004°23'0 0.0
2017-Sep-20 09:59N 51°16' E 004°23'0 0.0
2017-Sep-20 09:29N 51°16' E 004°23'0 0.0
2017-Sep-20 08:59N 51°16' E 004°23'0 0.0
2017-Sep-20 08:29N 51°16' E 004°23'0 0.0
2017-Sep-20 07:59N 51°16' E 004°23'0 0.0
2017-Sep-20 07:29N 51°16' E 004°23'0 0.0
2017-Sep-20 06:59N 51°16' E 004°23'0 0.0
2017-Sep-20 06:29N 51°16' E 004°23'0 0.0
2017-Sep-20 05:59N 51°16' E 004°23'0 0.0
2017-Sep-20 05:29N 51°16' E 004°23'0 0.0
2017-Sep-20 04:59N 51°16' E 004°23'0 0.0
2017-Sep-20 04:29N 51°16' E 004°23'0 0.0
2017-Sep-20 03:59N 51°16' E 004°23'0 0.0
2017-Sep-20 03:29N 51°16' E 004°23'0 0.0
2017-Sep-20 02:59N 51°16' E 004°23'0 0.0
2017-Sep-20 02:29N 51°16' E 004°23'0 0.0
2017-Sep-20 01:59N 51°16' E 004°23'0 0.0
2017-Sep-20 01:29N 51°16' E 004°23'0 0.0
2017-Sep-20 00:59N 51°16' E 004°23'0 0.0
2017-Sep-20 00:29N 51°16' E 004°23'0 0.0
2017-Sep-19 23:59N 51°16' E 004°23'0 0.0
2017-Sep-19 23:29N 51°16' E 004°23'0 0.0
2017-Sep-19 22:59N 51°16' E 004°23'0 0.0
2017-Sep-19 22:29N 51°16' E 004°23'0 0.0
2017-Sep-19 21:59N 51°16' E 004°23'0 0.0
2017-Sep-19 21:26N 51°16' E 004°23'0 0.0
2017-Sep-19 20:59N 51°16' E 004°23'1 1.3
2017-Sep-19 20:30N 51°16' E 004°22'2 4.2
2017-Sep-19 20:00N 51°17' E 004°20'2 4.1
2017-Sep-19 19:30N 51°19' E 004°19'2 3.6
2017-Sep-19 19:01N 51°21' E 004°17'0 0.0
2017-Sep-19 18:31N 51°21' E 004°17'0 0.1
2017-Sep-19 18:00N 51°21' E 004°17'1 2.2
2017-Sep-19 17:31N 51°21' E 004°15'3 6.4
2017-Sep-19 17:01N 51°24' E 004°12'5 9.6
2017-Sep-19 16:31N 51°22' E 004°05'510.3
2017-Sep-19 16:01N 51°26' E 004°00'612.5
2017-Sep-19 15:30N 51°21' E 003°54'612.9
2017-Sep-19 15:00N 51°23' E 003°44'611.1
2017-Sep-19 14:31N 51°26' E 003°36'5 9.4
2017-Sep-19 14:01N 51°25' E 003°29'713.6
2017-Sep-19 13:30N 51°24' E 003°18'714.2
2017-Sep-19 13:00N 51°24' E 003°07'713.5
2017-Sep-19 12:30N 51°22' E 002°56'714.2
2017-Sep-19 12:00N 51°22' E 002°45'613.0
2017-Sep-19 11:30N 51°22' E 002°35'5 9.2
2017-Sep-19 11:00N 51°21' E 002°27'5 9.5
2017-Sep-19 10:29N 51°19' E 002°21'613.4
2017-Sep-19 10:00N 51°15' E 002°12'713.3
2017-Sep-19 09:30N 51°12' E 002°03'713.5
2017-Sep-19 09:01N 51°09' E 001°53'713.6
2017-Sep-19 08:31N 51°04' E 001°45'714.1
2017-Sep-19 08:01N 51°03' E 001°56'815.8
2017-Sep-19 07:31N 51°03' E 002°09'3 5.5
2017-Sep-19 07:00N 51°01' E 002°11'0 0.0
2017-Sep-19 06:30N 51°01' E 002°11'0 0.0
2017-Sep-19 06:00N 51°01' E 002°11'0 0.0
2017-Sep-19 05:30N 51°01' E 002°11'0 0.0
2017-Sep-19 05:00N 51°01' E 002°11'0 0.0
2017-Sep-19 04:30N 51°01' E 002°11'0 0.0
2017-Sep-19 03:57N 51°01' E 002°11'0 0.0
2017-Sep-19 03:27N 51°01' E 002°11'0 0.0
2017-Sep-19 03:00N 51°01' E 002°11'0 0.0
2017-Sep-19 02:30N 51°01' E 002°11'0 0.0
2017-Sep-19 02:00N 51°01' E 002°11'0 0.0
2017-Sep-19 01:27N 51°01' E 002°11'0 0.0
2017-Sep-19 01:00N 51°01' E 002°11'0 0.0
2017-Sep-19 00:30N 51°01' E 002°11'0 0.0
2017-Sep-19 00:00N 51°01' E 002°11'0 0.0
2017-Sep-18 23:30N 51°01' E 002°11'0 0.0
2017-Sep-18 23:00N 51°01' E 002°11'0 0.0
2017-Sep-18 22:27N 51°01' E 002°11'0 0.0
2017-Sep-18 22:00N 51°01' E 002°11'0 0.0
2017-Sep-18 21:27N 51°01' E 002°11'0 0.0
2017-Sep-18 20:51N 51°01' E 002°11'0 0.0
2017-Sep-18 20:30N 51°01' E 002°11'0 0.0
2017-Sep-18 20:00N 51°01' E 002°11'0 0.0
2017-Sep-18 19:30N 51°01' E 002°11'0 0.0
2017-Sep-18 19:00N 51°01' E 002°11'0 0.0
2017-Sep-18 18:30N 51°01' E 002°11'0 0.0
2017-Sep-18 18:00N 51°01' E 002°11'0 0.0
2017-Sep-18 17:27N 51°01' E 002°11'0 0.0
2017-Sep-18 16:54N 51°01' E 002°11'0 0.0
2017-Sep-18 16:21N 51°01' E 002°11'0 0.0
2017-Sep-18 16:00N 51°01' E 002°11'0 0.0
2017-Sep-18 15:30N 51°01' E 002°11'0 0.0
2017-Sep-18 15:00N 51°01' E 002°11'0 0.0
2017-Sep-18 14:30N 51°01' E 002°11'0 0.0
2017-Sep-18 13:57N 51°01' E 002°11'0 0.0
2017-Sep-18 13:27N 51°01' E 002°11'0 0.0
2017-Sep-18 13:00N 51°01' E 002°11'0 0.0
2017-Sep-18 12:27N 51°01' E 002°11'0 0.0
2017-Sep-18 12:00N 51°01' E 002°11'0 0.0
2017-Sep-18 11:27N 51°01' E 002°11'0 0.0
2017-Sep-18 11:00N 51°01' E 002°11'0 0.0
2017-Sep-18 10:30N 51°01' E 002°11'0 0.0
2017-Sep-18 10:00N 51°01' E 002°11'0 0.0
2017-Sep-18 09:30N 51°01' E 002°11'0 0.0
2017-Sep-18 08:57N 51°01' E 002°11'0 0.0
2017-Sep-18 08:30N 51°01' E 002°11'0 0.0
2017-Sep-18 08:00N 51°01' E 002°11'0 0.0
2017-Sep-18 07:30N 51°01' E 002°11'0 0.0
2017-Sep-18 07:00N 51°01' E 002°11'0 0.0
2017-Sep-18 06:27N 51°01' E 002°11'0 0.0
2017-Sep-18 05:51N 51°01' E 002°11'0 0.0
2017-Sep-18 05:27N 51°01' E 002°11'0 0.0
2017-Sep-18 04:57N 51°01' E 002°11'0 0.0
2017-Sep-18 04:27N 51°01' E 002°11'0 0.0
2017-Sep-18 03:57N 51°01' E 002°11'0 0.0
2017-Sep-18 03:30N 51°01' E 002°11'1 2.4
2017-Sep-18 03:00N 51°02' E 002°10'511.0
2017-Sep-18 02:31N 51°03' E 002°02'713.6
2017-Sep-18 02:00N 51°02' E 001°51'611.6
2017-Sep-18 01:30N 51°01' E 001°42'815.0
2017-Sep-18 01:00N 50°56' E 001°33'5513.6
2017-Sep-17 20:57N 50°25' E 000°21'714.4
2017-Sep-17 20:28N 50°23' E 000°11'714.3
2017-Sep-17 20:00N 50°21' E 000°01'714.5
2017-Sep-17 19:30N 50°19' W 000°10'2915.9
2017-Sep-17 17:40N 50°10' W 000°54'317.0
2017-Sep-17 17:31N 50°10' W 000°58'917.0
2017-Sep-17 17:01N 50°07' W 001°11'816.7
2017-Sep-17 16:30N 50°05' W 001°23'816.6
2017-Sep-17 16:01N 50°03' W 001°36'816.8
2017-Sep-17 15:30N 50°01' W 001°48'816.1
2017-Sep-17 15:00N 49°59' W 002°01'815.8
2017-Sep-17 14:31N 49°57' W 002°12'2216.2
2017-Sep-17 13:09N 49°51' W 002°45'217.0
2017-Sep-17 13:00N 49°50' W 002°49'1117.0
2017-Sep-17 12:21N 49°48' W 003°06'616.9
2017-Sep-17 12:00N 49°47' W 003°15'816.7
2017-Sep-17 11:30N 49°45' W 003°27'816.7
2017-Sep-17 11:00N 49°46' W 003°40'1116.9
2017-Sep-17 10:21N 49°45' W 003°57'616.9
2017-Sep-17 10:00N 49°45' W 004°06'4617.1
2017-Sep-17 07:20N 49°41' W 005°17'  

Dump ship's entire track history